createdAt,value
2019-04-27T00:00:09.656Z,8.80
2019-04-27T00:02:48.646Z,7.47
2019-04-27T00:05:35.028Z,7.57
2019-04-27T00:08:02.930Z,10.10
2019-04-27T00:10:39.113Z,7.47
2019-04-27T00:13:08.298Z,8.70
2019-04-27T00:15:44.426Z,8.23
2019-04-27T00:18:20.503Z,13.77
2019-04-27T00:20:50.555Z,13.83
2019-04-27T00:23:23.691Z,10.10
2019-04-27T00:25:52.791Z,11.60
2019-04-27T00:28:23.028Z,12.13
2019-04-27T00:30:53.112Z,11.37
2019-04-27T00:33:23.722Z,13.83
2019-04-27T00:35:53.982Z,9.43
2019-04-27T00:38:39.386Z,14.00
2019-04-27T00:41:09.801Z,9.20
2019-04-27T00:43:38.493Z,13.20
2019-04-27T00:46:06.897Z,9.53
2019-04-27T00:48:35.339Z,11.10
2019-04-27T00:51:04.355Z,14.10
2019-04-27T00:53:33.517Z,14.47
2019-04-27T00:56:20.159Z,15.23
2019-04-27T00:58:50.490Z,12.20
2019-04-27T01:01:20.810Z,15.80
2019-04-27T01:03:50.868Z,10.10
2019-04-27T01:06:20.342Z,11.70
2019-04-27T01:08:48.762Z,11.63
2019-04-27T01:11:17.169Z,13.63
2019-04-27T01:13:45.588Z,12.87
2019-04-27T01:16:17.491Z,12.43
2019-04-27T01:18:44.711Z,11.03
2019-04-27T01:21:13.113Z,10.47
2019-04-27T01:23:41.801Z,9.03
2019-04-27T01:26:18.583Z,11.10
2019-04-27T01:28:54.813Z,10.23
2019-04-27T01:31:23.505Z,12.40
2019-04-27T01:33:52.189Z,9.93
2019-04-27T01:36:20.889Z,10.60
2019-04-27T01:38:49.754Z,11.57
2019-04-27T01:41:19.232Z,11.70
2019-04-27T01:43:49.087Z,10.23
2019-04-27T01:46:19.551Z,10.77
2019-04-27T01:48:49.021Z,8.40
2019-04-27T01:51:20.750Z,11.47
2019-04-27T01:53:49.184Z,13.27
2019-04-27T01:56:19.460Z,8.20
2019-04-27T01:58:49.409Z,10.70
2019-04-27T02:01:29.493Z,10.40
2019-04-27T02:04:02.325Z,9.43
2019-04-27T02:06:30.793Z,9.77
2019-04-27T02:08:59.765Z,10.13
2019-04-27T02:11:28.837Z,10.63
2019-04-27T02:13:59.296Z,11.20
2019-04-27T02:16:28.981Z,11.13
2019-04-27T02:18:58.591Z,10.03
2019-04-27T02:21:27.227Z,11.33
2019-04-27T02:23:55.646Z,9.90
2019-04-27T02:26:24.291Z,11.30
2019-04-27T02:28:59.966Z,9.90
2019-04-27T02:31:33.198Z,9.43
2019-04-27T02:34:09.603Z,8.50
2019-04-27T02:36:39.154Z,12.83
2019-04-27T02:39:09.501Z,15.73
2019-04-27T02:42:00.259Z,9.60
2019-04-27T02:44:40.553Z,8.73
2019-04-27T02:47:10.649Z,10.00
2019-04-27T02:49:40.641Z,11.93
2019-04-27T02:52:22.674Z,8.20
2019-04-27T02:54:51.363Z,14.20
2019-04-27T02:57:20.189Z,8.47
2019-04-27T02:59:50.386Z,7.70
2019-04-27T03:02:30.169Z,9.33
2019-04-27T03:05:00.569Z,8.37
2019-04-27T03:07:30.309Z,10.00
2019-04-27T03:09:59.735Z,11.90
2019-04-27T03:12:34.360Z,7.97
2019-04-27T03:15:10.246Z,9.50
2019-04-27T03:17:55.991Z,9.60
2019-04-27T03:20:26.122Z,11.80
2019-04-27T03:22:56.490Z,8.40
2019-04-27T03:25:30.354Z,11.50
2019-04-27T03:28:02.629Z,8.10
2019-04-27T03:30:35.366Z,5.70
2019-04-27T03:33:03.139Z,5.03
2019-04-27T03:35:36.056Z,7.73
2019-04-27T03:38:02.411Z,6.63
2019-04-27T03:40:31.113Z,9.60
2019-04-27T03:43:01.230Z,5.93
2019-04-27T03:45:30.226Z,5.00
2019-04-27T03:48:00.402Z,6.33
2019-04-27T03:50:30.683Z,5.30
2019-04-27T03:53:07.062Z,7.17
2019-04-27T03:55:52.390Z,5.33
2019-04-27T03:58:25.663Z,5.27
2019-04-27T04:00:54.925Z,5.47
2019-04-27T04:03:23.613Z,5.10
2019-04-27T04:05:52.408Z,5.57
2019-04-27T04:08:20.990Z,8.20
2019-04-27T04:10:51.127Z,5.20
2019-04-27T04:13:22.737Z,6.10
2019-04-27T04:15:56.361Z,5.17
2019-04-27T04:18:26.175Z,4.67
2019-04-27T04:20:55.179Z,6.17
2019-04-27T04:23:23.597Z,6.40
2019-04-27T04:25:52.355Z,5.20
2019-04-27T04:28:20.765Z,9.43
2019-04-27T04:30:50.137Z,4.90
2019-04-27T04:33:20.716Z,6.97
2019-04-27T04:35:49.860Z,6.33
2019-04-27T04:38:20.643Z,4.80
2019-04-27T04:40:50.652Z,5.00
2019-04-27T04:43:20.771Z,7.60
2019-04-27T04:45:50.801Z,6.60
2019-04-27T04:48:20.839Z,4.90
2019-04-27T04:50:50.025Z,6.77
2019-04-27T04:53:20.578Z,10.80
2019-04-27T04:55:49.620Z,5.43
2019-04-27T04:58:20.990Z,6.77
2019-04-27T05:00:50.252Z,5.17
2019-04-27T05:03:21.451Z,9.33
2019-04-27T05:05:50.053Z,6.27
2019-04-27T05:08:19.116Z,6.03
2019-04-27T05:10:49.773Z,6.53
2019-04-27T05:13:19.362Z,4.87
2019-04-27T05:15:48.679Z,5.63
2019-04-27T05:18:18.978Z,10.00
2019-04-27T05:20:52.370Z,4.23
2019-04-27T05:23:20.787Z,6.70
2019-04-27T05:25:49.548Z,5.83
2019-04-27T05:28:18.691Z,4.90
2019-04-27T05:30:48.948Z,6.97
2019-04-27T05:33:18.762Z,6.57
2019-04-27T05:35:49.107Z,8.80
2019-04-27T05:38:19.202Z,4.07
2019-04-27T05:40:49.706Z,5.67
2019-04-27T05:43:19.795Z,7.90
2019-04-27T05:46:01.033Z,8.53
2019-04-27T05:48:33.041Z,5.27
2019-04-27T05:51:02.109Z,6.20
2019-04-27T05:53:30.599Z,4.97
2019-04-27T05:55:59.532Z,5.10
2019-04-27T05:58:28.940Z,5.03
2019-04-27T06:00:59.270Z,3.57
2019-04-27T06:03:29.535Z,4.60
2019-04-27T06:06:01.372Z,3.53
2019-04-27T06:08:29.527Z,5.00
2019-04-27T06:10:59.233Z,6.00
2019-04-27T06:13:30.395Z,5.97
2019-04-27T06:15:59.277Z,8.77
2019-04-27T06:18:29.456Z,6.77
2019-04-27T06:20:59.678Z,6.13
2019-04-27T06:23:28.938Z,3.60
2019-04-27T06:25:57.727Z,3.73
2019-04-27T06:28:26.327Z,4.97
2019-04-27T06:30:54.747Z,7.40
2019-04-27T06:33:31.934Z,5.67
2019-04-27T06:35:53.603Z,3.00
2019-04-27T06:38:22.030Z,4.93
2019-04-27T06:40:50.437Z,5.53
2019-04-27T06:43:19.157Z,5.10
2019-04-27T06:45:48.818Z,3.50
2019-04-27T06:48:19.309Z,3.63
2019-04-27T06:50:50.218Z,5.67
2019-04-27T06:53:19.185Z,4.47
2019-04-27T06:55:49.276Z,5.67
2019-04-27T06:58:20.013Z,5.00
2019-04-27T07:00:49.568Z,14.63
2019-04-27T07:03:18.889Z,9.10
2019-04-27T07:05:48.717Z,9.00
2019-04-27T07:08:18.632Z,8.00
2019-04-27T07:10:49.008Z,5.23
2019-04-27T07:13:17.478Z,3.60
2019-04-27T07:15:45.919Z,5.13
2019-04-27T07:18:14.606Z,4.97
2019-04-27T07:20:43.305Z,5.17
2019-04-27T07:23:11.706Z,6.23
2019-04-27T07:25:40.124Z,4.53
2019-04-27T07:28:09.215Z,6.10
2019-04-27T07:30:38.831Z,4.50
2019-04-27T07:33:08.711Z,7.10
2019-04-27T07:35:39.314Z,9.83
2019-04-27T07:38:09.898Z,8.10
2019-04-27T07:40:41.620Z,9.80
2019-04-27T07:43:10.266Z,5.83
2019-04-27T07:45:40.353Z,8.10
2019-04-27T07:48:09.239Z,5.60
2019-04-27T07:50:39.058Z,9.20
2019-04-27T07:53:08.613Z,8.00
2019-04-27T07:55:37.231Z,9.20
2019-04-27T07:58:05.657Z,6.37
2019-04-27T08:00:34.131Z,9.33
2019-04-27T08:03:02.535Z,6.57
2019-04-27T08:05:30.954Z,7.43
2019-04-27T08:08:00.220Z,7.20
2019-04-27T08:10:29.200Z,8.20
2019-04-27T08:12:59.559Z,7.83
2019-04-27T08:15:29.056Z,6.23
2019-04-27T08:17:59.224Z,13.10
2019-04-27T08:20:29.374Z,8.13
2019-04-27T08:22:59.879Z,8.87
2019-04-27T08:25:28.745Z,8.00
2019-04-27T08:28:03.282Z,7.70
2019-04-27T08:30:33.617Z,7.50
2019-04-27T08:33:03.931Z,9.53
2019-04-27T08:35:32.805Z,15.33
2019-04-27T08:38:01.311Z,10.37
2019-04-27T08:40:30.007Z,9.53
2019-04-27T08:42:59.182Z,13.87
2019-04-27T08:45:29.266Z,7.97
2019-04-27T08:47:59.481Z,12.27
2019-04-27T08:50:28.708Z,7.93
2019-04-27T08:52:57.532Z,9.07
2019-04-27T08:55:25.956Z,7.97
2019-04-27T08:57:54.365Z,11.43
2019-04-27T09:00:22.918Z,9.13
2019-04-27T09:02:51.322Z,9.00
2019-04-27T09:05:25.761Z,12.10
2019-04-27T09:08:00.332Z,12.60
2019-04-27T09:10:42.826Z,7.03
2019-04-27T09:13:29.648Z,8.73
2019-04-27T09:16:16.229Z,9.27
2019-04-27T09:18:44.636Z,9.23
2019-04-27T09:21:13.403Z,6.77
2019-04-27T09:23:42.089Z,9.37
2019-04-27T09:26:11.165Z,8.13
2019-04-27T09:28:39.665Z,10.13
2019-04-27T09:31:09.249Z,8.60
2019-04-27T09:33:38.076Z,9.67
2019-04-27T09:36:06.501Z,8.30
2019-04-27T09:38:35.761Z,8.27
2019-04-27T09:41:04.366Z,11.67
2019-04-27T09:43:32.861Z,8.90
2019-04-27T09:46:01.282Z,8.20
2019-04-27T09:48:29.694Z,10.27
2019-04-27T09:50:58.109Z,8.70
2019-04-27T09:53:27.060Z,11.23
2019-04-27T09:55:55.870Z,10.70
2019-04-27T09:58:25.751Z,14.43
2019-04-27T10:00:54.433Z,7.00
2019-04-27T10:03:22.870Z,9.57
2019-04-27T10:05:51.334Z,8.90
2019-04-27T10:08:20.138Z,9.30
2019-04-27T10:10:48.558Z,6.93
2019-04-27T10:13:16.967Z,8.40
2019-04-27T10:15:46.025Z,8.90
2019-04-27T10:18:16.221Z,9.47
2019-04-27T10:20:58.305Z,8.47
2019-04-27T10:23:15.006Z,11.43
2019-04-27T10:25:43.436Z,12.50
2019-04-27T10:28:11.832Z,8.57
2019-04-27T10:30:40.597Z,5.43
2019-04-27T10:33:09.003Z,9.03
2019-04-27T10:35:37.418Z,8.63
2019-04-27T10:38:05.823Z,6.63
2019-04-27T10:40:34.530Z,10.43
2019-04-27T10:43:03.010Z,5.70
2019-04-27T10:45:31.715Z,7.23
2019-04-27T10:48:00.199Z,11.30
2019-04-27T10:50:28.614Z,7.73
2019-04-27T10:52:59.378Z,6.30
2019-04-27T10:55:27.165Z,7.90
2019-04-27T10:57:55.572Z,8.13
2019-04-27T11:00:28.961Z,7.70
2019-04-27T11:02:58.359Z,6.33
2019-04-27T11:05:46.697Z,9.10
2019-04-27T11:08:16.700Z,11.87
2019-04-27T11:10:46.188Z,10.67
2019-04-27T11:13:16.369Z,8.43
2019-04-27T11:15:46.071Z,5.90
2019-04-27T11:18:16.555Z,8.40
2019-04-27T11:20:46.869Z,8.63
2019-04-27T11:23:16.368Z,7.53
2019-04-27T11:25:46.820Z,8.37
2019-04-27T11:28:15.713Z,5.13
2019-04-27T11:30:44.546Z,4.53
2019-04-27T11:33:12.946Z,3.87
2019-04-27T11:35:43.006Z,8.10
2019-04-27T11:38:11.413Z,6.93
2019-04-27T11:40:40.227Z,6.20
2019-04-27T11:43:08.914Z,5.83
2019-04-27T11:45:37.342Z,5.63
2019-04-27T11:48:06.104Z,5.03
2019-04-27T11:50:35.794Z,7.63
2019-04-27T11:53:06.015Z,9.83
2019-04-27T11:55:35.127Z,4.53
2019-04-27T11:58:03.533Z,8.30
2019-04-27T12:00:32.462Z,6.90
2019-04-27T12:03:00.873Z,7.40
2019-04-27T12:05:29.290Z,6.77
2019-04-27T12:07:57.698Z,6.70
2019-04-27T12:10:26.457Z,5.53
2019-04-27T12:12:56.316Z,5.57
2019-04-27T12:15:26.311Z,11.27
2019-04-27T12:17:56.187Z,10.13
2019-04-27T12:20:25.843Z,5.00
2019-04-27T12:22:54.839Z,8.53
2019-04-27T12:25:23.311Z,7.87
2019-04-27T12:28:02.095Z,12.13
2019-04-27T12:30:48.700Z,9.70
2019-04-27T12:33:17.109Z,9.70
2019-04-27T12:35:46.250Z,12.40
2019-04-27T12:38:15.654Z,11.30
2019-04-27T12:40:44.387Z,9.90
2019-04-27T12:43:12.785Z,9.43
2019-04-27T12:45:43.619Z,8.20
2019-04-27T12:48:11.673Z,3.53
2019-04-27T12:50:40.090Z,8.10
2019-04-27T12:53:15.922Z,9.03
2019-04-27T12:55:51.546Z,11.13
2019-04-27T12:58:36.930Z,11.80
2019-04-27T13:01:09.779Z,9.20
2019-04-27T13:03:38.187Z,10.00
2019-04-27T13:06:06.886Z,9.97
2019-04-27T13:08:35.760Z,6.97
2019-04-27T13:11:05.962Z,7.33
2019-04-27T13:13:36.693Z,7.20
2019-04-27T13:16:06.562Z,4.83
2019-04-27T13:18:36.056Z,9.83
2019-04-27T13:21:04.824Z,2.90
2019-04-27T13:23:33.568Z,5.50
2019-04-27T13:26:01.986Z,7.23
2019-04-27T13:28:30.722Z,6.80
2019-04-27T13:30:59.137Z,9.50
2019-04-27T13:33:27.539Z,4.73
2019-04-27T13:35:56.282Z,6.50
2019-04-27T13:38:26.644Z,11.10
2019-04-27T13:41:11.118Z,7.80
2019-04-27T13:43:39.953Z,6.50
2019-04-27T13:46:10.594Z,7.70
2019-04-27T13:48:56.841Z,5.27
2019-04-27T13:51:30.161Z,6.37
2019-04-27T13:53:58.858Z,9.17
2019-04-27T13:56:27.278Z,9.53
2019-04-27T13:58:58.306Z,7.47
2019-04-27T14:01:26.349Z,9.40
2019-04-27T14:03:55.044Z,11.20
2019-04-27T14:06:23.457Z,12.33
2019-04-27T14:08:52.218Z,8.20
2019-04-27T14:11:20.634Z,7.37
2019-04-27T14:13:49.403Z,6.73
2019-04-27T14:16:18.950Z,10.20
2019-04-27T14:18:48.138Z,8.00
2019-04-27T14:21:16.692Z,6.07
2019-04-27T14:23:45.379Z,9.57
2019-04-27T14:26:13.798Z,8.00
2019-04-27T14:28:42.214Z,7.80
2019-04-27T14:31:10.967Z,13.47
2019-04-27T14:33:39.882Z,11.80
2019-04-27T14:36:08.429Z,8.60
2019-04-27T14:38:36.829Z,5.00
2019-04-27T14:41:05.794Z,6.50
2019-04-27T14:43:34.203Z,6.03
2019-04-27T14:46:02.627Z,13.00
2019-04-27T14:48:31.366Z,6.60
2019-04-27T14:50:59.791Z,14.90
2019-04-27T14:53:28.376Z,7.47
2019-04-27T14:55:58.444Z,9.23
2019-04-27T14:58:28.298Z,7.77
2019-04-27T15:00:58.489Z,9.50
2019-04-27T15:03:27.282Z,7.25
2019-04-27T15:05:56.375Z,8.23
2019-04-27T15:08:25.543Z,8.73
2019-04-27T15:10:54.574Z,7.27
2019-04-27T15:13:23.258Z,7.20
2019-04-27T15:15:51.984Z,4.07
2019-04-27T15:18:21.154Z,21.07
2019-04-27T15:20:51.585Z,4.70
2019-04-27T15:23:20.270Z,4.87
2019-04-27T15:25:49.999Z,6.50
2019-04-27T15:28:23.478Z,4.07
2019-04-27T15:30:53.806Z,4.20
2019-04-27T15:33:40.417Z,6.20
2019-04-27T15:36:14.623Z,4.87
2019-04-27T15:38:47.731Z,4.47
2019-04-27T15:41:17.446Z,4.60
2019-04-27T15:43:48.628Z,14.13
2019-04-27T15:46:18.464Z,3.10
2019-04-27T15:48:48.709Z,4.90
2019-04-27T15:51:21.021Z,2.63
2019-04-27T15:53:50.787Z,6.23
2019-04-27T15:56:18.148Z,2.53
2019-04-27T15:58:48.306Z,7.33
2019-04-27T16:01:18.019Z,5.80
2019-04-27T16:03:48.213Z,8.03
2019-04-27T16:08:56.652Z,7.93
2019-04-27T16:11:25.331Z,2.50
2019-04-27T16:13:53.798Z,4.70
2019-04-27T16:16:24.538Z,2.10
2019-04-27T16:18:52.939Z,6.87
2019-04-27T16:21:21.363Z,3.10
2019-04-27T16:23:50.110Z,6.00
2019-04-27T16:26:18.800Z,4.83
2019-04-27T16:28:52.858Z,5.33
2019-04-27T16:31:18.602Z,8.77
2019-04-27T16:33:48.073Z,7.37
2019-04-27T16:36:19.607Z,5.70
2019-04-27T16:38:49.447Z,5.17
2019-04-27T16:41:18.504Z,6.00
2019-04-27T16:43:49.016Z,10.93
2019-04-27T16:46:19.087Z,11.97
2019-04-27T16:48:48.262Z,6.53
2019-04-27T16:51:18.307Z,9.10
2019-04-27T16:53:46.972Z,7.07
2019-04-27T16:56:18.344Z,9.37
2019-04-27T16:58:48.934Z,7.73
2019-04-27T17:01:23.336Z,8.67
2019-04-27T17:03:51.917Z,11.93
2019-04-27T17:06:21.432Z,6.93
2019-04-27T17:08:50.043Z,7.40
2019-04-27T17:11:19.552Z,5.23
2019-04-27T17:13:52.092Z,7.90
2019-04-27T17:16:38.920Z,10.37
2019-04-27T17:19:09.450Z,9.43
2019-04-27T17:21:41.165Z,7.07
2019-04-27T17:24:09.174Z,9.40
2019-04-27T17:26:42.385Z,13.43
2019-04-27T17:29:16.031Z,12.80
2019-04-27T17:31:41.846Z,7.67
2019-04-27T17:34:10.522Z,10.83
2019-04-27T17:36:40.284Z,9.87
2019-04-27T17:39:10.270Z,13.20
2019-04-27T17:41:42.122Z,12.63
2019-04-27T17:44:12.746Z,11.73
2019-04-27T17:46:42.770Z,12.43
2019-04-27T17:49:09.778Z,12.67
2019-04-27T17:51:42.880Z,11.23
2019-04-27T17:54:11.408Z,7.43
2019-04-27T17:56:48.280Z,11.97
2019-04-27T17:59:10.461Z,15.07
2019-04-27T18:01:39.352Z,11.50
2019-04-27T18:04:10.444Z,9.77
2019-04-27T18:06:39.053Z,10.07
2019-04-27T18:09:10.491Z,12.43
2019-04-27T18:11:38.903Z,9.80
2019-04-27T18:14:09.819Z,7.70
2019-04-27T18:16:38.085Z,11.20
2019-04-27T18:19:11.981Z,7.70
2019-04-27T18:21:42.528Z,9.80
2019-04-27T18:24:12.898Z,11.77
2019-04-27T18:26:49.291Z,19.33
2019-04-27T18:29:13.094Z,8.60
2019-04-27T18:31:41.499Z,8.97
2019-04-27T18:34:15.256Z,14.53
2019-04-27T18:36:43.861Z,16.70
2019-04-27T18:39:13.684Z,11.73
2019-04-27T18:41:49.313Z,16.00
2019-04-27T18:44:11.198Z,12.97
2019-04-27T18:46:39.798Z,12.27
2019-04-27T18:49:09.862Z,12.40
2019-04-27T18:51:43.278Z,9.97
2019-04-27T18:54:11.991Z,16.37
2019-04-27T18:56:41.687Z,8.90
2019-04-27T18:59:10.430Z,10.30
2019-04-27T19:01:38.840Z,11.00
2019-04-27T19:04:08.717Z,14.13
2019-04-27T19:06:39.116Z,10.87
2019-04-27T19:09:08.387Z,15.87
2019-04-27T19:11:38.320Z,10.60
2019-04-27T19:14:08.289Z,10.90
2019-04-27T19:16:38.320Z,15.10
2019-04-27T19:19:08.656Z,11.40
2019-04-27T19:21:39.270Z,15.50
2019-04-27T19:24:08.891Z,18.80
2019-04-27T19:26:42.437Z,14.53
2019-04-27T19:29:15.158Z,20.73
2019-04-27T19:31:51.114Z,12.50
2019-04-27T19:34:19.989Z,16.67
2019-04-27T19:36:48.990Z,16.50
2019-04-27T19:39:18.061Z,14.10
2019-04-27T19:41:59.954Z,15.67
2019-04-27T19:44:18.806Z,11.47
2019-04-27T19:46:49.223Z,14.60
2019-04-27T19:49:19.309Z,15.10
2019-04-27T19:51:47.896Z,14.80
2019-04-27T19:54:16.329Z,14.63
2019-04-27T19:56:45.022Z,12.50
2019-04-27T19:59:15.082Z,14.23
2019-04-27T20:01:45.134Z,22.57
2019-04-27T20:04:21.191Z,17.57
2019-04-27T20:06:49.606Z,19.83
2019-04-27T20:09:31.634Z,29.90
2019-04-27T20:12:00.798Z,16.43
2019-04-27T20:14:31.735Z,16.17
2019-04-27T20:17:00.436Z,22.33
2019-04-27T20:19:29.113Z,23.17
2019-04-27T20:21:57.527Z,16.17
2019-04-27T20:24:26.299Z,15.40
2019-04-27T20:26:54.994Z,17.10
2019-04-27T20:29:23.414Z,21.77
2019-04-27T20:31:52.162Z,18.73
2019-04-27T20:34:20.923Z,22.07
2019-04-27T20:36:51.039Z,17.20
2019-04-27T20:39:21.190Z,21.53
2019-04-27T20:41:51.106Z,17.77
2019-04-27T20:44:21.072Z,20.20
2019-04-27T20:46:51.234Z,25.40
2019-04-27T20:49:20.862Z,21.10
2019-04-27T20:51:53.035Z,14.23
2019-04-27T20:54:22.886Z,18.67
2019-04-27T20:56:53.514Z,19.20
2019-04-27T20:59:22.080Z,17.57
2019-04-27T21:01:50.629Z,18.10
2019-04-27T21:04:26.170Z,18.23
2019-04-27T21:07:11.486Z,19.33
2019-04-27T21:09:41.420Z,20.53
2019-04-27T21:12:09.998Z,17.93
2019-04-27T21:14:38.423Z,18.23
2019-04-27T21:17:07.142Z,18.40
2019-04-27T21:19:35.564Z,14.27
2019-04-27T21:22:04.047Z,17.80
2019-04-27T21:24:32.818Z,21.10
2019-04-27T21:27:01.504Z,16.33
2019-04-27T21:29:31.135Z,15.13
2019-04-27T21:32:01.047Z,16.30
2019-04-27T21:34:31.055Z,17.03
2019-04-27T21:37:01.067Z,20.53
2019-04-27T21:39:29.658Z,17.00
2019-04-27T21:41:58.057Z,21.83
2019-04-27T21:44:26.478Z,16.00
2019-04-27T21:46:55.228Z,17.80
2019-04-27T21:49:23.646Z,15.13
2019-04-27T21:52:02.639Z,22.43
2019-04-27T21:54:32.959Z,21.17
2019-04-27T21:57:02.227Z,20.87
2019-04-27T21:59:30.933Z,22.50
2019-04-27T22:02:02.307Z,14.40
2019-04-27T22:04:31.483Z,18.63
2019-04-27T22:07:01.374Z,26.13
2019-04-27T22:09:30.296Z,12.23
2019-04-27T22:11:58.705Z,24.73
2019-04-27T22:14:27.126Z,20.70
2019-04-27T22:16:55.849Z,19.70
2019-04-27T22:19:25.234Z,24.87
2019-04-27T22:21:53.641Z,14.53
2019-04-27T22:24:26.321Z,15.47
2019-04-27T22:26:54.744Z,18.53
2019-04-27T22:29:23.166Z,17.77
2019-04-27T22:31:51.800Z,15.63
2019-04-27T22:34:21.099Z,21.07
2019-04-27T22:36:49.498Z,23.60
2019-04-27T22:39:22.031Z,23.20
2019-04-27T22:41:54.862Z,22.47
2019-04-27T22:44:25.260Z,19.63
2019-04-27T22:46:54.638Z,17.90
2019-04-27T22:49:23.342Z,18.40
2019-04-27T22:51:51.754Z,13.93
2019-04-27T22:54:21.777Z,14.20
2019-04-27T22:56:51.953Z,18.63
2019-04-27T22:59:22.005Z,13.07
2019-04-27T23:01:52.057Z,19.43
2019-04-27T23:04:28.370Z,19.20
2019-04-27T23:06:57.062Z,15.10
2019-04-27T23:09:25.655Z,18.43
2019-04-27T23:11:54.065Z,17.20
2019-04-27T23:14:22.822Z,16.10
2019-04-27T23:17:11.190Z,15.30
2019-04-27T23:19:40.887Z,10.70
2019-04-27T23:22:11.081Z,21.10
2019-04-27T23:24:41.372Z,24.63
2019-04-27T23:27:11.102Z,13.93
2019-04-27T23:29:41.668Z,16.10
2019-04-27T23:32:11.770Z,14.93
2019-04-27T23:34:41.510Z,15.20
2019-04-27T23:37:10.131Z,13.27
2019-04-27T23:39:38.570Z,15.97
2019-04-27T23:42:07.266Z,22.37
2019-04-27T23:44:35.681Z,14.33
2019-04-27T23:47:04.097Z,19.27
2019-04-27T23:49:32.514Z,15.77
2019-04-27T23:52:08.565Z,22.33
2019-04-27T23:54:36.994Z,14.80
2019-04-27T23:57:05.745Z,18.07
2019-04-27T23:59:34.167Z,18.87
